createdAt,value
2022-07-31T00:00:31.502Z,17.20
2022-07-31T00:03:00.117Z,17.20
2022-07-31T00:05:29.159Z,17.10
2022-07-31T00:07:58.019Z,17.10
2022-07-31T00:10:27.103Z,17.10
2022-07-31T00:12:56.709Z,17.00
2022-07-31T00:15:25.012Z,17.00
2022-07-31T00:17:53.322Z,17.00
2022-07-31T00:20:21.944Z,17.10
2022-07-31T00:22:50.538Z,17.10
2022-07-31T00:25:20.050Z,17.10
2022-07-31T00:27:48.885Z,17.10
2022-07-31T00:30:18.652Z,17.10
2022-07-31T00:32:48.941Z,17.20
2022-07-31T00:35:20.609Z,17.20
2022-07-31T00:37:52.235Z,17.20
2022-07-31T00:40:23.732Z,17.20
2022-07-31T00:42:52.048Z,17.10
2022-07-31T00:45:22.232Z,17.10
2022-07-31T00:47:57.759Z,17.10
2022-07-31T00:50:26.397Z,17.10
2022-07-31T00:52:55.499Z,17.10
2022-07-31T00:55:24.024Z,17.00
2022-07-31T00:57:52.717Z,16.90
2022-07-31T01:00:23.553Z,16.90
2022-07-31T01:02:51.937Z,16.90
2022-07-31T01:05:20.227Z,16.90
2022-07-31T01:07:49.542Z,16.80
2022-07-31T01:10:42.090Z,16.80
2022-07-31T01:13:23.161Z,16.90
2022-07-31T01:15:56.330Z,16.90
2022-07-31T01:18:27.385Z,16.80
2022-07-31T01:21:01.317Z,16.80
2022-07-31T01:23:58.145Z,16.70
2022-07-31T01:26:54.285Z,16.70
2022-07-31T01:29:32.512Z,16.70
2022-07-31T01:32:07.085Z,16.70
2022-07-31T01:34:43.149Z,16.70
2022-07-31T01:37:20.612Z,16.60
2022-07-31T01:39:58.196Z,16.60
2022-07-31T01:42:29.970Z,16.60
2022-07-31T01:45:04.010Z,16.60
2022-07-31T01:47:36.012Z,16.60
2022-07-31T01:50:09.379Z,16.60
2022-07-31T01:53:01.080Z,16.50
2022-07-31T01:56:01.768Z,16.50
2022-07-31T01:58:24.965Z,16.40
2022-07-31T02:00:58.384Z,16.40
2022-07-31T02:03:44.510Z,16.30
2022-07-31T02:06:20.456Z,16.40
2022-07-31T02:08:54.823Z,16.40
2022-07-31T02:11:25.305Z,16.40
2022-07-31T02:13:55.379Z,16.30
2022-07-31T02:16:27.479Z,16.30
2022-07-31T02:19:08.884Z,16.20
2022-07-31T02:21:37.244Z,16.20
2022-07-31T02:24:07.664Z,16.20
2022-07-31T02:26:37.893Z,16.20
2022-07-31T02:29:19.370Z,16.20
2022-07-31T02:32:01.974Z,16.30
2022-07-31T02:34:36.564Z,16.50
2022-07-31T02:37:06.129Z,16.60
2022-07-31T02:39:39.144Z,16.60
2022-07-31T02:42:09.667Z,16.80
2022-07-31T02:44:40.537Z,16.80
2022-07-31T02:47:12.885Z,16.80
2022-07-31T02:49:45.212Z,16.80
2022-07-31T02:52:14.643Z,16.80
2022-07-31T02:54:44.428Z,16.90
2022-07-31T02:57:12.824Z,16.90
2022-07-31T02:59:41.300Z,16.90
2022-07-31T03:02:11.685Z,16.90
2022-07-31T03:04:44.194Z,16.90
2022-07-31T03:07:12.820Z,16.80
2022-07-31T03:09:41.249Z,16.70
2022-07-31T03:12:35.123Z,16.70
2022-07-31T03:15:05.295Z,16.70
2022-07-31T03:17:38.203Z,16.70
2022-07-31T03:20:14.463Z,16.70
2022-07-31T03:22:44.529Z,16.70
2022-07-31T03:25:21.441Z,16.60
2022-07-31T03:27:55.885Z,16.60
2022-07-31T03:30:26.183Z,16.60
2022-07-31T03:33:02.665Z,16.60
2022-07-31T03:35:32.009Z,16.50
2022-07-31T03:38:01.000Z,16.50
2022-07-31T03:40:51.668Z,16.50
2022-07-31T03:43:22.427Z,16.50
2022-07-31T03:45:52.796Z,16.50
2022-07-31T03:48:23.409Z,16.60
2022-07-31T03:50:52.628Z,16.60
2022-07-31T03:53:23.143Z,16.60
2022-07-31T03:55:54.647Z,16.60
2022-07-31T03:58:25.340Z,16.70
2022-07-31T04:00:55.585Z,16.70
2022-07-31T04:03:31.613Z,16.90
2022-07-31T04:06:18.881Z,16.90
2022-07-31T04:08:47.315Z,17.30
2022-07-31T04:11:16.897Z,17.10
2022-07-31T04:13:46.172Z,17.20
2022-07-31T04:16:15.034Z,17.20
2022-07-31T04:18:50.872Z,17.20
2022-07-31T04:21:19.763Z,17.30
2022-07-31T04:23:49.670Z,17.40
2022-07-31T04:26:37.534Z,17.50
2022-07-31T04:29:06.057Z,17.70
2022-07-31T04:31:34.830Z,17.70
2022-07-31T04:34:04.671Z,17.80
2022-07-31T04:36:33.376Z,17.90
2022-07-31T04:39:03.043Z,17.90
2022-07-31T04:41:31.584Z,18.00
2022-07-31T04:44:00.485Z,18.00
2022-07-31T04:46:36.963Z,18.00
2022-07-31T04:49:07.318Z,18.00
2022-07-31T04:51:35.717Z,17.90
2022-07-31T04:54:05.241Z,17.80
2022-07-31T04:56:42.733Z,17.80
2022-07-31T04:59:14.344Z,17.70
2022-07-31T05:01:46.877Z,17.60
2022-07-31T05:04:19.119Z,17.60
2022-07-31T05:06:50.035Z,17.50
2022-07-31T05:09:23.632Z,17.50
2022-07-31T05:11:56.287Z,17.50
2022-07-31T05:14:24.619Z,17.50
2022-07-31T05:16:56.284Z,17.60
2022-07-31T05:19:29.726Z,17.70
2022-07-31T05:22:16.467Z,18.10
2022-07-31T05:25:05.754Z,18.50
2022-07-31T05:27:34.097Z,19.10
2022-07-31T05:30:08.829Z,19.60
2022-07-31T05:32:38.960Z,20.00
2022-07-31T05:35:09.666Z,20.40
2022-07-31T05:37:38.976Z,20.80
2022-07-31T05:40:11.928Z,21.20
2022-07-31T05:42:59.288Z,22.10
2022-07-31T05:45:49.237Z,23.50
2022-07-31T05:48:18.455Z,24.80
2022-07-31T05:50:50.938Z,25.40
2022-07-31T05:53:20.835Z,25.60
2022-07-31T05:56:17.832Z,25.50
2022-07-31T05:58:51.276Z,25.10
2022-07-31T06:01:19.704Z,24.80
2022-07-31T06:03:52.120Z,24.80
2022-07-31T06:06:42.541Z,25.70
2022-07-31T06:09:10.953Z,26.10
2022-07-31T06:11:44.335Z,25.90
2022-07-31T06:14:13.064Z,25.40
2022-07-31T06:17:00.026Z,25.60
2022-07-31T06:19:29.429Z,25.80
2022-07-31T06:21:59.083Z,26.00
2022-07-31T06:24:27.672Z,25.50
2022-07-31T06:26:59.114Z,25.20
2022-07-31T06:29:41.068Z,24.90
2022-07-31T06:32:10.725Z,24.80
2022-07-31T06:34:39.653Z,24.60
2022-07-31T06:37:09.711Z,24.50
2022-07-31T06:39:55.381Z,24.20
2022-07-31T06:43:03.746Z,24.10
2022-07-31T06:45:54.671Z,24.30
2022-07-31T06:48:42.810Z,24.30
2022-07-31T06:51:30.273Z,24.00
2022-07-31T06:54:02.107Z,24.00
2022-07-31T06:56:31.554Z,24.30
2022-07-31T06:59:00.916Z,24.60
2022-07-31T07:01:30.401Z,24.70
2022-07-31T07:03:59.856Z,24.70
2022-07-31T07:06:29.250Z,24.80
2022-07-31T07:08:57.802Z,25.00
2022-07-31T07:11:28.864Z,25.10
2022-07-31T07:13:57.544Z,24.90
2022-07-31T07:16:26.016Z,25.00
2022-07-31T07:18:54.355Z,25.00
2022-07-31T07:21:24.540Z,25.00
2022-07-31T07:23:53.907Z,25.10
2022-07-31T07:26:35.589Z,25.20
2022-07-31T07:29:04.784Z,25.10
2022-07-31T07:31:33.673Z,24.70
2022-07-31T07:34:06.065Z,24.50
2022-07-31T07:36:34.557Z,24.50
2022-07-31T07:39:12.580Z,24.60
2022-07-31T07:41:44.161Z,24.80
2022-07-31T07:44:12.632Z,25.00
2022-07-31T07:46:41.217Z,25.30
2022-07-31T07:49:13.035Z,25.60
2022-07-31T07:52:00.473Z,25.60
2022-07-31T07:54:49.529Z,25.10
2022-07-31T07:57:25.111Z,25.00
2022-07-31T08:00:14.298Z,25.30
2022-07-31T08:03:02.694Z,25.50
2022-07-31T08:05:40.276Z,25.80
2022-07-31T08:08:09.188Z,25.50
2022-07-31T08:10:51.792Z,25.40
2022-07-31T08:13:43.021Z,26.10
2022-07-31T08:16:12.885Z,27.00
2022-07-31T08:18:44.540Z,27.70
2022-07-31T08:21:13.494Z,28.20
2022-07-31T08:23:42.204Z,27.80
2022-07-31T08:26:10.658Z,28.10
2022-07-31T08:28:41.799Z,27.90
2022-07-31T08:31:20.381Z,27.40
2022-07-31T08:34:31.376Z,27.20
2022-07-31T08:37:50.371Z,27.40
2022-07-31T08:39:51.774Z,27.10
2022-07-31T08:42:20.949Z,26.90
2022-07-31T08:44:51.009Z,26.60
2022-07-31T08:47:26.984Z,27.00
2022-07-31T08:49:58.709Z,27.70
2022-07-31T08:52:32.248Z,28.50
2022-07-31T08:55:09.422Z,28.80
2022-07-31T08:57:38.029Z,29.00
2022-07-31T09:00:13.236Z,28.80
2022-07-31T09:02:42.765Z,29.10
2022-07-31T09:05:42.033Z,29.30
2022-07-31T09:08:15.074Z,29.70
2022-07-31T09:10:49.985Z,29.20
2022-07-31T09:13:20.180Z,27.90
2022-07-31T09:15:59.626Z,27.40
2022-07-31T09:18:31.559Z,27.90
2022-07-31T09:21:08.637Z,28.30
2022-07-31T09:23:47.405Z,27.80
2022-07-31T09:26:16.351Z,27.40
2022-07-31T09:28:48.862Z,27.20
2022-07-31T09:31:22.057Z,27.00
2022-07-31T09:34:02.447Z,26.80
2022-07-31T09:36:42.695Z,26.70
2022-07-31T09:39:31.681Z,26.90
2022-07-31T09:42:25.381Z,27.20
2022-07-31T09:45:03.506Z,28.00
2022-07-31T09:47:34.976Z,28.50
2022-07-31T09:50:08.414Z,28.90
2022-07-31T09:52:36.819Z,29.50
2022-07-31T09:55:14.296Z,30.10
2022-07-31T09:57:54.715Z,30.30
2022-07-31T10:00:24.729Z,30.40
2022-07-31T10:02:58.071Z,30.00
2022-07-31T10:05:29.505Z,29.00
2022-07-31T10:08:02.542Z,29.10
2022-07-31T10:10:50.716Z,29.40
2022-07-31T10:13:26.148Z,29.00
2022-07-31T10:16:01.507Z,27.70
2022-07-31T10:19:00.372Z,27.70
2022-07-31T10:21:41.703Z,28.80
2022-07-31T10:24:27.462Z,29.40
2022-07-31T10:27:01.214Z,30.00
2022-07-31T10:29:41.087Z,29.80
2022-07-31T10:32:11.138Z,29.80
2022-07-31T10:35:07.455Z,30.20
2022-07-31T10:38:16.571Z,30.10
2022-07-31T10:41:13.332Z,29.70
2022-07-31T10:44:04.718Z,29.90
2022-07-31T10:46:46.976Z,30.00
2022-07-31T10:49:44.658Z,30.10
2022-07-31T10:52:38.394Z,30.20
2022-07-31T10:55:27.046Z,30.00
2022-07-31T10:58:16.638Z,29.90
2022-07-31T11:01:07.756Z,29.80
2022-07-31T11:04:12.174Z,29.70
2022-07-31T11:07:19.823Z,29.40
2022-07-31T11:10:17.935Z,28.60
2022-07-31T11:13:11.439Z,28.40
2022-07-31T11:16:04.947Z,28.70
2022-07-31T11:19:06.183Z,28.80
2022-07-31T11:21:39.242Z,29.00
2022-07-31T11:24:16.455Z,28.80
2022-07-31T11:26:52.650Z,28.90
2022-07-31T11:29:59.630Z,29.00
2022-07-31T11:32:24.730Z,29.10
2022-07-31T11:34:57.086Z,29.00
2022-07-31T11:37:39.515Z,29.00
2022-07-31T11:40:15.299Z,29.00
2022-07-31T11:42:46.358Z,29.00
2022-07-31T11:45:17.845Z,28.80
2022-07-31T11:48:11.465Z,28.70
2022-07-31T11:50:41.544Z,28.70
2022-07-31T11:53:10.088Z,28.80
2022-07-31T11:55:48.672Z,28.90
2022-07-31T11:58:20.608Z,29.00
2022-07-31T12:00:52.557Z,29.30
2022-07-31T12:03:25.393Z,29.60
2022-07-31T12:05:54.934Z,29.70
2022-07-31T12:08:25.669Z,29.70
2022-07-31T12:10:56.475Z,29.80
2022-07-31T12:13:27.280Z,29.90
2022-07-31T12:16:01.824Z,30.20
2022-07-31T12:18:32.090Z,30.30
2022-07-31T12:21:04.219Z,30.20
2022-07-31T12:23:43.732Z,30.00
2022-07-31T12:26:22.066Z,30.40
2022-07-31T12:29:01.278Z,30.40
2022-07-31T12:31:32.375Z,30.20
2022-07-31T12:34:00.675Z,29.90
2022-07-31T12:36:29.607Z,29.70
2022-07-31T12:39:02.825Z,29.60
2022-07-31T12:41:31.968Z,29.30
2022-07-31T12:44:13.143Z,29.20
2022-07-31T12:46:43.003Z,29.30
2022-07-31T12:49:11.473Z,29.10
2022-07-31T12:51:44.987Z,28.90
2022-07-31T12:54:17.790Z,28.90
2022-07-31T12:56:47.450Z,28.90
2022-07-31T12:59:17.081Z,28.70
2022-07-31T13:01:45.489Z,28.40
2022-07-31T13:04:18.674Z,28.40
2022-07-31T13:06:51.501Z,28.40
2022-07-31T13:09:30.008Z,28.40
2022-07-31T13:11:58.867Z,28.40
2022-07-31T13:14:28.497Z,28.50
2022-07-31T13:16:57.357Z,28.50
2022-07-31T13:19:25.690Z,28.60
2022-07-31T13:21:56.678Z,28.50
2022-07-31T13:24:26.423Z,28.40
2022-07-31T13:26:54.874Z,28.50
2022-07-31T13:29:23.669Z,28.50
2022-07-31T13:31:54.479Z,28.60
2022-07-31T13:34:23.202Z,28.60
2022-07-31T13:36:51.515Z,28.70
2022-07-31T13:39:20.109Z,28.80
2022-07-31T13:41:48.948Z,28.80
2022-07-31T13:44:17.830Z,28.90
2022-07-31T13:46:46.583Z,28.90
2022-07-31T13:49:16.549Z,28.80
2022-07-31T13:51:45.470Z,28.80
2022-07-31T13:54:14.360Z,28.80
2022-07-31T13:56:43.760Z,28.90
2022-07-31T13:59:14.214Z,28.90
2022-07-31T14:02:04.018Z,29.00
2022-07-31T14:04:38.489Z,29.00
2022-07-31T14:07:09.207Z,29.00
2022-07-31T14:09:37.913Z,29.00
2022-07-31T14:12:07.368Z,29.10
2022-07-31T14:14:35.975Z,29.10
2022-07-31T14:17:04.638Z,29.00
2022-07-31T14:19:42.033Z,29.10
2022-07-31T14:22:14.356Z,29.10
2022-07-31T14:24:50.769Z,29.00
2022-07-31T14:27:21.470Z,29.00
2022-07-31T14:29:49.926Z,28.90
2022-07-31T14:32:19.626Z,28.90
2022-07-31T14:34:50.182Z,28.90
2022-07-31T14:37:20.397Z,28.80
2022-07-31T14:39:49.559Z,28.80
2022-07-31T14:42:22.495Z,28.80
2022-07-31T14:44:54.377Z,28.80
2022-07-31T14:47:23.783Z,28.80
2022-07-31T14:50:08.904Z,28.90
2022-07-31T14:52:39.825Z,28.90
2022-07-31T14:55:09.999Z,28.80
2022-07-31T14:57:39.129Z,28.90
2022-07-31T15:00:13.063Z,29.00
2022-07-31T15:02:42.119Z,29.10
2022-07-31T15:06:42.324Z,29.20
2022-07-31T15:08:03.701Z,29.10
2022-07-31T15:10:32.755Z,28.90
2022-07-31T15:13:01.053Z,28.70
2022-07-31T15:15:29.514Z,28.50
2022-07-31T15:18:00.452Z,28.50
2022-07-31T15:20:33.002Z,28.30
2022-07-31T15:23:01.689Z,28.40
2022-07-31T15:25:31.163Z,28.40
2022-07-31T15:27:59.500Z,28.30
2022-07-31T15:30:27.852Z,28.20
2022-07-31T15:32:56.181Z,28.30
2022-07-31T15:35:24.637Z,28.20
2022-07-31T15:37:54.534Z,28.20
2022-07-31T15:40:23.332Z,28.20
2022-07-31T15:42:51.721Z,28.20
2022-07-31T15:45:21.437Z,28.40
2022-07-31T15:47:50.133Z,28.40
2022-07-31T15:50:20.616Z,28.30
2022-07-31T15:52:50.521Z,28.30
2022-07-31T15:55:20.397Z,28.20
2022-07-31T15:57:49.304Z,28.20
2022-07-31T16:00:18.376Z,28.30
2022-07-31T16:02:46.656Z,28.30
2022-07-31T16:05:21.416Z,28.40
2022-07-31T16:08:31.905Z,28.30
2022-07-31T16:10:41.074Z,28.10
2022-07-31T16:13:09.803Z,28.00
2022-07-31T16:15:38.730Z,27.90
2022-07-31T16:18:07.159Z,27.80
2022-07-31T16:20:38.619Z,27.70
2022-07-31T16:23:07.087Z,27.60
2022-07-31T16:25:36.272Z,27.50
2022-07-31T16:28:06.880Z,27.60
2022-07-31T16:30:35.337Z,27.60
2022-07-31T16:33:03.764Z,27.50
2022-07-31T16:35:32.090Z,27.40
2022-07-31T16:38:00.645Z,27.30
2022-07-31T16:40:33.684Z,27.30
2022-07-31T16:43:50.053Z,27.20
2022-07-31T16:45:53.463Z,27.10
2022-07-31T16:48:22.159Z,27.00
2022-07-31T16:50:53.275Z,26.80
2022-07-31T16:54:13.051Z,26.50
2022-07-31T16:56:14.131Z,26.10
2022-07-31T16:58:43.727Z,25.70
2022-07-31T17:01:58.665Z,25.40
2022-07-31T17:04:04.633Z,25.20
2022-07-31T17:06:36.152Z,24.90
2022-07-31T17:09:15.167Z,24.70
2022-07-31T17:11:48.494Z,24.50
2022-07-31T17:14:18.626Z,24.30
2022-07-31T17:16:51.329Z,24.10
2022-07-31T17:19:42.761Z,24.00
2022-07-31T17:22:11.779Z,24.00
2022-07-31T17:24:50.563Z,23.90
2022-07-31T17:27:21.452Z,23.90
2022-07-31T17:29:50.143Z,23.90
2022-07-31T17:32:20.330Z,23.70
2022-07-31T17:34:49.603Z,23.70
2022-07-31T17:37:18.046Z,23.60
2022-07-31T17:39:47.355Z,23.50
2022-07-31T17:42:18.037Z,23.40
2022-07-31T17:44:55.085Z,23.30
2022-07-31T17:47:26.441Z,23.30
2022-07-31T17:49:54.943Z,23.30
2022-07-31T17:52:23.611Z,23.30
2022-07-31T17:54:52.336Z,23.30
2022-07-31T17:57:22.779Z,23.20
2022-07-31T17:59:52.069Z,23.10
2022-07-31T18:02:20.426Z,23.00
2022-07-31T18:04:50.683Z,22.80
2022-07-31T18:07:21.907Z,22.70
2022-07-31T18:09:50.749Z,22.60
2022-07-31T18:12:19.569Z,22.50
2022-07-31T18:14:48.685Z,22.50
2022-07-31T18:17:16.986Z,22.60
2022-07-31T18:19:45.264Z,22.50
2022-07-31T18:22:15.052Z,22.50
2022-07-31T18:24:43.486Z,22.50
2022-07-31T18:27:11.818Z,22.40
2022-07-31T18:29:40.842Z,22.40
2022-07-31T18:32:09.837Z,22.30
2022-07-31T18:34:38.556Z,22.10
2022-07-31T18:37:07.798Z,22.10
2022-07-31T18:39:48.856Z,22.10
2022-07-31T18:42:18.013Z,22.10
2022-07-31T18:44:46.453Z,22.00
2022-07-31T18:47:15.296Z,21.80
2022-07-31T18:51:00.331Z,21.70
2022-07-31T18:52:32.351Z,21.50
2022-07-31T18:55:01.993Z,21.30
2022-07-31T18:57:30.517Z,21.20
2022-07-31T18:59:58.804Z,21.10
2022-07-31T19:02:28.304Z,21.10
2022-07-31T19:04:56.661Z,21.00
2022-07-31T19:07:25.594Z,21.00
2022-07-31T19:09:53.915Z,21.00
2022-07-31T19:12:23.996Z,20.90
2022-07-31T19:14:52.271Z,20.90
2022-07-31T19:17:21.592Z,20.80
2022-07-31T19:19:55.158Z,20.70
2022-07-31T19:22:30.915Z,20.60
2022-07-31T19:24:59.680Z,20.60
2022-07-31T19:27:48.548Z,20.50
2022-07-31T19:30:18.020Z,20.50
2022-07-31T19:32:46.605Z,20.40
2022-07-31T19:35:15.219Z,20.40
2022-07-31T19:37:43.592Z,20.30
2022-07-31T19:40:12.954Z,20.30
2022-07-31T19:42:42.563Z,20.30
2022-07-31T19:45:11.423Z,20.40
2022-07-31T19:47:41.053Z,20.40
2022-07-31T19:50:11.515Z,20.40
2022-07-31T19:52:40.114Z,20.50
2022-07-31T19:55:10.664Z,20.50
2022-07-31T19:57:39.559Z,20.50
2022-07-31T20:00:11.940Z,20.30
2022-07-31T20:02:41.901Z,20.10
2022-07-31T20:05:11.883Z,20.10
2022-07-31T20:07:40.459Z,20.00
2022-07-31T20:10:11.116Z,20.20
2022-07-31T20:12:40.756Z,20.30
2022-07-31T20:15:12.068Z,20.30
2022-07-31T20:17:40.398Z,20.40
2022-07-31T20:20:15.730Z,20.30
2022-07-31T20:22:44.507Z,20.30
2022-07-31T20:25:19.999Z,20.40
2022-07-31T20:27:50.159Z,20.30
2022-07-31T20:30:21.981Z,20.30
2022-07-31T20:32:51.523Z,20.40
2022-07-31T20:35:32.994Z,20.30
2022-07-31T20:38:15.554Z,20.30
2022-07-31T20:40:53.077Z,20.40
2022-07-31T20:43:25.742Z,20.40
2022-07-31T20:45:58.054Z,20.40
2022-07-31T20:48:31.519Z,20.40
2022-07-31T20:51:01.381Z,20.40
2022-07-31T20:53:30.921Z,20.40
2022-07-31T20:56:00.165Z,20.30
2022-07-31T20:58:29.252Z,20.30
2022-07-31T21:00:59.412Z,20.40
2022-07-31T21:03:28.854Z,20.30
2022-07-31T21:05:57.657Z,20.30
2022-07-31T21:08:26.220Z,20.40
2022-07-31T21:10:54.503Z,20.40
2022-07-31T21:13:23.233Z,20.40
2022-07-31T21:15:51.773Z,20.50
2022-07-31T21:18:22.588Z,20.60
2022-07-31T21:20:53.778Z,20.60
2022-07-31T21:23:23.912Z,20.50
2022-07-31T21:25:52.881Z,20.50
2022-07-31T21:28:22.057Z,20.50
2022-07-31T21:30:53.529Z,20.50
2022-07-31T21:33:24.427Z,20.50
2022-07-31T21:35:53.993Z,20.40
2022-07-31T21:38:22.651Z,20.40
2022-07-31T21:40:51.845Z,20.40
2022-07-31T21:43:22.503Z,20.40
2022-07-31T21:45:57.769Z,20.40
2022-07-31T21:48:35.567Z,20.50
2022-07-31T21:51:04.674Z,20.40
2022-07-31T21:53:32.982Z,20.40
2022-07-31T21:56:04.667Z,20.40
2022-07-31T21:58:33.323Z,20.30
2022-07-31T22:01:01.996Z,20.30
2022-07-31T22:03:32.421Z,20.20
2022-07-31T22:06:21.096Z,20.20
2022-07-31T22:08:52.252Z,20.10
2022-07-31T22:11:20.935Z,20.10
2022-07-31T22:13:50.008Z,20.10
2022-07-31T22:16:18.796Z,20.10
2022-07-31T22:18:50.176Z,20.10
2022-07-31T22:21:19.885Z,20.00
2022-07-31T22:23:49.472Z,20.10
2022-07-31T22:26:18.091Z,20.10
2022-07-31T22:28:48.312Z,20.10
2022-07-31T22:31:17.804Z,20.10
2022-07-31T22:33:46.477Z,20.00
2022-07-31T22:36:16.983Z,19.90
2022-07-31T22:38:48.165Z,19.90
2022-07-31T22:41:16.568Z,19.90
2022-07-31T22:44:12.036Z,19.80
2022-07-31T22:46:34.174Z,19.70
2022-07-31T22:49:06.799Z,19.60
2022-07-31T22:51:38.565Z,19.50
2022-07-31T22:54:07.560Z,19.50
2022-07-31T22:56:35.855Z,19.40
2022-07-31T22:59:04.395Z,19.30
2022-07-31T23:01:32.916Z,19.40
2022-07-31T23:04:01.212Z,19.30
2022-07-31T23:06:32.677Z,19.20
2022-07-31T23:09:03.127Z,19.20
2022-07-31T23:11:32.036Z,19.20
2022-07-31T23:14:00.632Z,19.20
2022-07-31T23:16:29.460Z,19.20
2022-07-31T23:18:57.900Z,19.30
2022-07-31T23:21:26.383Z,19.20
2022-07-31T23:23:54.951Z,19.30
2022-07-31T23:26:26.882Z,19.20
2022-07-31T23:28:56.745Z,19.30
2022-07-31T23:31:26.298Z,19.40
2022-07-31T23:33:55.357Z,19.30
2022-07-31T23:36:24.436Z,19.30
2022-07-31T23:38:53.146Z,19.20
2022-07-31T23:41:36.283Z,19.20
2022-07-31T23:44:10.680Z,19.10
2022-07-31T23:46:40.378Z,19.10
2022-07-31T23:49:10.093Z,19.10
2022-07-31T23:51:39.018Z,19.10
2022-07-31T23:54:08.313Z,19.10
2022-07-31T23:56:36.726Z,19.10
2022-07-31T23:59:06.538Z,19.10
